Time,TemperatureF,DewpointF,PressureIn,WindDirection,WindDirectionDegrees,WindSpeedMPH,WindSpeedGustMPH,Humidity,HourlyPrecipIn,Conditions,Clouds,dailyrainin,SoftwareType,DateUTC
2013-03-19 00:04:00,34.4,32.3,30.20,West,259,0.0,10.0,92,0.00,,,0.00,Wunderground v.1.15,2013-03-19 07:04:00,
2013-03-19 00:10:00,34.4,32.3,30.20,West,259,1.0,1.0,92,0.00,,,0.00,Wunderground v.1.15,2013-03-19 07:10:00,
2013-03-19 00:16:00,34.4,32.3,30.19,West,259,0.0,2.0,92,0.00,,,0.00,Wunderground v.1.15,2013-03-19 07:16:00,
2013-03-19 00:21:00,34.3,32.2,30.19,West,259,0.0,0.0,92,0.00,,,0.00,Wunderground v.1.15,2013-03-19 07:21:00,
2013-03-19 00:27:00,34.1,32.3,30.18,West,259,0.0,0.0,93,0.00,,,0.00,Wunderground v.1.15,2013-03-19 07:27:00,
2013-03-19 00:33:00,33.9,31.8,30.18,West,259,0.0,0.0,92,0.00,,,0.00,Wunderground v.1.15,2013-03-19 07:33:00,
2013-03-19 00:38:00,33.8,31.7,30.18,West,259,0.0,0.0,92,0.00,,,0.00,Wunderground v.1.15,2013-03-19 07:38:00,
2013-03-19 00:44:00,33.6,31.5,30.18,West,259,0.0,0.0,92,0.00,,,0.00,Wunderground v.1.15,2013-03-19 07:44:00,
2013-03-19 00:50:00,33.4,31.3,30.18,West,259,0.0,0.0,92,0.00,,,0.00,Wunderground v.1.15,2013-03-19 07:50:00,
2013-03-19 00:57:00,33.2,31.1,30.17,West,259,0.0,0.0,92,0.00,,,0.00,Wunderground v.1.15,2013-03-19 07:57:00,
2013-03-19 01:03:00,33.0,31.2,30.17,West,259,0.0,2.0,93,0.00,,,0.00,Wunderground v.1.15,2013-03-19 08:03:00,
2013-03-19 01:08:00,32.9,30.8,30.17,West,259,0.0,2.0,92,0.00,,,0.00,Wunderground v.1.15,2013-03-19 08:08:00,
2013-03-19 01:13:00,32.7,30.6,30.16,North,355,0.0,2.0,92,0.00,,,0.00,Wunderground v.1.15,2013-03-19 08:13:00,
2013-03-19 01:19:00,32.7,30.9,30.17,North,355,0.0,2.0,93,0.00,,,0.00,Wunderground v.1.15,2013-03-19 08:19:00,
2013-03-19 01:24:00,32.7,30.9,30.16,North,355,0.0,2.0,93,0.00,,,0.00,Wunderground v.1.15,2013-03-19 08:24:00,
2013-03-19 01:30:00,32.8,31.0,30.16,North,355,0.0,2.0,93,0.00,,,0.00,Wunderground v.1.15,2013-03-19 08:30:00,
2013-03-19 01:35:00,32.8,31.0,30.16,North,355,0.0,2.0,93,0.00,,,0.00,Wunderground v.1.15,2013-03-19 08:35:00,
2013-03-19 01:41:00,32.8,31.0,30.16,North,355,0.0,2.0,93,0.00,,,0.00,Wunderground v.1.15,2013-03-19 08:41:00,
2013-03-19 01:47:00,32.8,31.0,30.16,North,355,0.0,2.0,93,0.00,,,0.00,Wunderground v.1.15,2013-03-19 08:47:00,
2013-03-19 01:53:00,32.9,31.1,30.15,North,355,0.0,2.0,93,0.00,,,0.00,Wunderground v.1.15,2013-03-19 08:53:00,
2013-03-19 01:58:00,33.0,31.2,30.15,North,355,0.0,2.0,93,0.00,,,0.00,Wunderground v.1.15,2013-03-19 08:58:00,
2013-03-19 02:04:00,33.0,31.2,30.16,North,355,0.0,2.0,93,0.00,,,0.00,Wunderground v.1.15,2013-03-19 09:04:00,
2013-03-19 02:09:00,33.3,31.8,30.15,North,355,0.0,2.0,94,0.00,,,0.00,Wunderground v.1.15,2013-03-19 09:09:00,
2013-03-19 02:15:00,33.5,32.0,30.15,North,355,0.0,3.0,94,0.00,,,0.00,Wunderground v.1.15,2013-03-19 09:15:00,
2013-03-19 02:20:00,33.7,32.2,30.15,ENE,65,0.0,2.0,94,0.00,,,0.00,Wunderground v.1.15,2013-03-19 09:20:00,
2013-03-19 02:25:00,33.9,32.4,30.15,ENE,65,0.0,2.0,94,0.00,,,0.00,Wunderground v.1.15,2013-03-19 09:25:00,
2013-03-19 02:31:00,33.9,32.1,30.15,East,85,0.0,2.0,93,0.00,,,0.00,Wunderground v.1.15,2013-03-19 09:31:00,
2013-03-19 02:36:00,34.4,32.9,30.15,ENE,57,1.0,2.0,94,0.00,,,0.00,Wunderground v.1.15,2013-03-19 09:36:00,
2013-03-19 02:42:00,34.5,32.7,30.15,ENE,57,1.0,2.0,93,0.00,,,0.00,Wunderground v.1.15,2013-03-19 09:42:00,
2013-03-19 02:48:00,35.1,33.3,30.15,NE,43,1.0,4.0,93,0.00,,,0.00,Wunderground v.1.15,2013-03-19 09:48:00,
2013-03-19 02:53:00,35.6,33.5,30.14,ENE,57,2.0,3.0,92,0.00,,,0.00,Wunderground v.1.15,2013-03-19 09:53:00,
2013-03-19 02:59:00,35.7,33.3,30.14,East,92,2.0,3.0,91,0.00,,,0.00,Wunderground v.1.15,2013-03-19 09:59:00,
2013-03-19 03:05:00,35.3,32.7,30.14,SE,145,1.0,3.0,90,0.00,,,0.00,Wunderground v.1.15,2013-03-19 10:05:00,
2013-03-19 03:11:00,35.0,32.6,30.14,SE,145,1.0,2.0,91,0.00,,,0.00,Wunderground v.1.15,2013-03-19 10:11:00,
2013-03-19 03:17:00,34.6,32.2,30.14,SE,145,1.0,2.0,91,0.00,,,0.00,Wunderground v.1.15,2013-03-19 10:17:00,
2013-03-19 03:22:00,34.4,32.0,30.14,SE,145,0.0,2.0,91,0.00,,,0.00,Wunderground v.1.15,2013-03-19 10:22:00,
2013-03-19 03:28:00,34.4,32.0,30.13,SE,145,0.0,2.0,91,0.00,,,0.00,Wunderground v.1.15,2013-03-19 10:28:00,
2013-03-19 03:34:00,34.4,32.3,30.13,SE,145,0.0,2.0,92,0.00,,,0.00,Wunderground v.1.15,2013-03-19 10:34:00,
2013-03-19 03:40:00,35.9,33.8,30.12,NE,53,2.0,2.0,92,0.00,,,0.00,Wunderground v.1.15,2013-03-19 10:40:00,
2013-03-19 03:45:00,36.8,34.1,30.12,East,88,3.0,5.0,90,0.00,,,0.00,Wunderground v.1.15,2013-03-19 10:45:00,
2013-03-19 03:51:00,37.1,34.2,30.12,SE,141,2.0,3.0,89,0.00,,,0.00,Wunderground v.1.15,2013-03-19 10:51:00,
2013-03-19 03:57:00,37.4,34.2,30.12,ESE,105,3.0,5.0,88,0.00,,,0.00,Wunderground v.1.15,2013-03-19 10:57:00,
2013-03-19 04:02:00,37.4,35.3,30.11,ENE,69,4.0,5.0,92,0.00,,,0.00,Wunderground v.1.15,2013-03-19 11:02:00,
2013-03-19 04:07:00,37.3,33.8,30.11,ENE,63,3.0,5.0,87,0.00,,,0.00,Wunderground v.1.15,2013-03-19 11:07:00,
2013-03-19 04:13:00,37.3,33.8,30.11,East,88,2.0,3.0,87,0.00,,,0.00,Wunderground v.1.15,2013-03-19 11:13:00,
2013-03-19 04:18:00,37.4,33.9,30.11,SSE,153,1.0,3.0,87,0.00,,,0.00,Wunderground v.1.15,2013-03-19 11:18:00,
2013-03-19 04:24:00,37.3,33.8,30.10,SE,146,1.0,2.0,87,0.00,,,0.00,Wunderground v.1.15,2013-03-19 11:24:00,
2013-03-19 04:29:00,37.3,33.8,30.10,ESE,116,1.0,2.0,87,0.00,,,0.00,Wunderground v.1.15,2013-03-19 11:29:00,
2013-03-19 04:35:00,37.1,33.6,30.10,SE,130,1.0,2.0,87,0.00,,,0.00,Wunderground v.1.15,2013-03-19 11:35:00,
2013-03-19 04:41:00,37.1,33.6,30.10,ESE,114,1.0,2.0,87,0.00,,,0.00,Wunderground v.1.15,2013-03-19 11:41:00,
2013-03-19 04:46:00,37.3,33.5,30.10,East,85,1.0,2.0,86,0.00,,,0.00,Wunderground v.1.15,2013-03-19 11:46:00,
2013-03-19 04:51:00,37.6,33.8,30.10,ENE,63,1.0,3.0,86,0.00,,,0.00,Wunderground v.1.15,2013-03-19 11:51:00,
2013-03-19 04:57:00,37.9,33.8,30.10,East,82,1.0,3.0,85,0.00,,,0.00,Wunderground v.1.15,2013-03-19 11:57:00,
2013-03-19 05:02:00,37.9,33.5,30.10,NNE,26,1.0,2.0,84,0.00,,,0.00,Wunderground v.1.15,2013-03-19 12:02:00,
2013-03-19 05:07:00,38.0,33.6,30.09,NE,51,1.0,5.0,84,0.00,,,0.00,Wunderground v.1.15,2013-03-19 12:07:00,
2013-03-19 05:12:00,38.1,33.4,30.09,NE,39,2.0,3.0,83,0.00,,,0.00,Wunderground v.1.15,2013-03-19 12:12:00,
2013-03-19 05:18:00,38.3,33.6,30.09,ESE,108,2.0,4.0,83,0.00,,,0.00,Wunderground v.1.15,2013-03-19 12:18:00,
2013-03-19 05:24:00,38.2,33.5,30.09,ESE,117,1.0,2.0,83,0.00,,,0.00,Wunderground v.1.15,2013-03-19 12:24:00,
2013-03-19 05:29:00,37.9,33.5,30.08,NE,51,0.0,2.0,84,0.00,,,0.00,Wunderground v.1.15,2013-03-19 12:29:00,
2013-03-19 05:35:00,37.6,33.2,30.08,North,9,1.0,2.0,84,0.00,,,0.00,Wunderground v.1.15,2013-03-19 12:35:00,
2013-03-19 05:40:00,37.5,33.4,30.08,South,180,1.0,1.0,85,0.00,,,0.00,Wunderground v.1.15,2013-03-19 12:40:00,
2013-03-19 05:46:00,37.2,33.4,30.08,South,181,0.0,2.0,86,0.00,,,0.00,Wunderground v.1.15,2013-03-19 12:46:00,
2013-03-19 05:52:00,37.2,33.1,30.08,East,101,1.0,4.0,85,0.00,,,0.00,Wunderground v.1.15,2013-03-19 12:52:00,
2013-03-19 05:57:00,37.5,33.1,30.08,NW,326,2.0,4.0,84,0.00,,,0.00,Wunderground v.1.15,2013-03-19 12:57:00,
2013-03-19 06:03:00,37.8,33.4,30.08,SE,130,1.0,3.0,84,0.00,,,0.00,Wunderground v.1.15,2013-03-19 13:03:00,
2013-03-19 06:08:00,37.9,33.5,30.08,South,185,1.0,3.0,84,0.00,,,0.00,Wunderground v.1.15,2013-03-19 13:08:00,
2013-03-19 06:14:00,37.9,33.5,30.08,NE,35,1.0,2.0,84,0.00,,,0.00,Wunderground v.1.15,2013-03-19 13:14:00,
2013-03-19 06:19:00,37.8,33.4,30.08,NE,35,0.0,2.0,84,0.00,,,0.00,Wunderground v.1.15,2013-03-19 13:19:00,
2013-03-19 06:25:00,37.7,33.3,30.08,NE,35,0.0,0.0,84,0.00,,,0.00,Wunderground v.1.15,2013-03-19 13:25:00,
2013-03-19 06:30:00,37.6,33.8,30.08,South,171,1.0,3.0,86,0.00,,,0.00,Wunderground v.1.15,2013-03-19 13:30:00,
2013-03-19 06:36:00,37.4,33.3,30.08,NNW,348,2.0,3.0,85,0.00,,,0.00,Wunderground v.1.15,2013-03-19 13:36:00,
2013-03-19 06:41:00,37.3,33.5,30.08,ESE,115,1.0,1.0,86,0.00,,,0.00,Wunderground v.1.15,2013-03-19 13:41:00,
2013-03-19 06:47:00,37.5,33.1,30.08,SE,127,1.0,3.0,84,0.00,,,0.00,Wunderground v.1.15,2013-03-19 13:47:00,
2013-03-19 06:52:00,37.5,33.1,30.08,SE,126,1.0,1.0,84,0.00,,,0.00,Wunderground v.1.15,2013-03-19 13:52:00,
2013-03-19 06:58:00,37.5,33.1,30.07,SE,134,0.0,1.0,84,0.00,,,0.00,Wunderground v.1.15,2013-03-19 13:58:00,
2013-03-19 07:04:00,37.4,33.6,30.07,SSW,199,1.0,5.0,86,0.00,,,0.00,Wunderground v.1.15,2013-03-19 14:04:00,
2013-03-19 07:10:00,37.3,33.5,30.07,SSW,199,1.0,1.0,86,0.00,,,0.00,Wunderground v.1.15,2013-03-19 14:10:00,
2013-03-19 07:15:00,37.2,33.4,30.07,SSW,199,0.0,5.0,86,0.00,,,0.00,Wunderground v.1.15,2013-03-19 14:15:00,
2013-03-19 07:21:00,37.0,33.2,30.06,SSW,199,0.0,5.0,86,0.00,,,0.00,Wunderground v.1.15,2013-03-19 14:21:00,
2013-03-19 07:27:00,36.8,33.3,30.06,SSW,199,0.0,5.0,87,0.00,,,0.00,Wunderground v.1.15,2013-03-19 14:27:00,
2013-03-19 07:32:00,36.6,33.1,30.06,SSW,199,0.0,5.0,87,0.00,,,0.00,Wunderground v.1.15,2013-03-19 14:32:00,
2013-03-19 07:38:00,36.5,33.3,30.06,SSW,199,0.0,5.0,88,0.00,,,0.00,Wunderground v.1.15,2013-03-19 14:38:00,
2013-03-19 07:44:00,36.5,33.6,30.07,SSW,199,0.0,5.0,89,0.00,,,0.00,Wunderground v.1.15,2013-03-19 14:44:00,
2013-03-19 07:50:00,36.6,33.7,30.07,SSW,199,0.0,5.0,89,0.00,,,0.00,Wunderground v.1.15,2013-03-19 14:50:00,
2013-03-19 07:56:00,36.7,33.8,30.07,SSW,199,0.0,5.0,89,0.00,,,0.00,Wunderground v.1.15,2013-03-19 14:56:00,
2013-03-19 08:01:00,36.7,33.8,30.07,SSW,199,0.0,5.0,89,0.00,,,0.00,Wunderground v.1.15,2013-03-19 15:01:00,
2013-03-19 08:07:00,36.8,33.9,30.07,SSW,199,0.0,5.0,89,0.00,,,0.00,Wunderground v.1.15,2013-03-19 15:07:00,
2013-03-19 08:12:00,36.9,34.0,30.07,SSW,199,0.0,5.0,89,0.00,,,0.00,Wunderground v.1.15,2013-03-19 15:12:00,
2013-03-19 08:17:00,37.0,34.1,30.07,SSW,199,0.0,5.0,89,0.00,,,0.00,Wunderground v.1.15,2013-03-19 15:17:00,
2013-03-19 08:23:00,36.9,34.0,30.06,SSW,198,0.0,5.0,89,0.00,,,0.00,Wunderground v.1.15,2013-03-19 15:23:00,
2013-03-19 08:29:00,36.8,34.1,30.06,SE,139,1.0,5.0,90,0.00,,,0.00,Wunderground v.1.15,2013-03-19 15:29:00,
2013-03-19 08:35:00,36.9,34.2,30.07,SE,139,1.0,5.0,90,0.00,,,0.00,Wunderground v.1.15,2013-03-19 15:35:00,
2013-03-19 08:40:00,37.1,34.4,30.06,SE,139,0.0,5.0,90,0.00,,,0.00,Wunderground v.1.15,2013-03-19 15:40:00,
2013-03-19 08:46:00,37.4,34.5,30.06,SE,139,0.0,5.0,89,0.00,,,0.00,Wunderground v.1.15,2013-03-19 15:46:00,
2013-03-19 08:52:00,37.5,34.6,30.06,SE,139,0.0,5.0,89,0.00,,,0.00,Wunderground v.1.15,2013-03-19 15:52:00,
2013-03-19 08:58:00,37.6,34.4,30.06,SE,139,0.0,5.0,88,0.00,,,0.00,Wunderground v.1.15,2013-03-19 15:58:00,
2013-03-19 09:04:00,37.9,34.7,30.06,SE,139,0.0,5.0,88,0.00,,,0.00,Wunderground v.1.15,2013-03-19 16:04:00,
2013-03-19 09:10:00,38.2,35.0,30.06,SE,139,0.0,5.0,88,0.00,,,0.00,Wunderground v.1.15,2013-03-19 16:10:00,
2013-03-19 09:15:00,38.4,35.2,30.06,SE,139,0.0,5.0,88,0.00,,,0.00,Wunderground v.1.15,2013-03-19 16:15:00,
2013-03-19 09:20:00,38.9,35.9,30.06,SE,139,0.0,5.0,89,0.00,,,0.00,Wunderground v.1.15,2013-03-19 16:20:00,
2013-03-19 09:26:00,39.2,35.4,30.06,SE,139,0.0,5.0,86,0.00,,,0.01,Wunderground v.1.15,2013-03-19 16:26:00,
2013-03-19 09:31:00,39.1,34.7,30.05,SE,139,0.0,5.0,84,0.00,,,0.01,Wunderground v.1.15,2013-03-19 16:31:00,
2013-03-19 09:37:00,39.2,34.8,30.05,SE,138,0.0,5.0,84,0.00,,,0.01,Wunderground v.1.15,2013-03-19 16:37:00,
2013-03-19 09:43:00,39.4,35.3,30.05,SE,139,0.0,5.0,85,0.00,,,0.01,Wunderground v.1.15,2013-03-19 16:43:00,
2013-03-19 09:48:00,39.7,35.3,30.05,SE,139,0.0,5.0,84,0.00,,,0.01,Wunderground v.1.15,2013-03-19 16:48:00,
2013-03-19 09:54:00,39.9,35.5,30.05,SE,139,0.0,5.0,84,0.00,,,0.01,Wunderground v.1.15,2013-03-19 16:54:00,
2013-03-19 10:00:00,40.0,35.6,30.04,ESE,104,1.0,1.0,84,0.00,,,0.01,Wunderground v.1.15,2013-03-19 17:00:00,
2013-03-19 10:06:00,40.3,35.8,30.04,ESE,104,0.0,5.0,84,0.00,,,0.01,Wunderground v.1.15,2013-03-19 17:06:00,
2013-03-19 10:11:00,40.6,35.8,30.04,ESE,106,0.0,5.0,83,0.00,,,0.01,Wunderground v.1.15,2013-03-19 17:11:00,
2013-03-19 10:17:00,41.0,35.9,30.04,SE,144,1.0,5.0,82,0.00,,,0.01,Wunderground v.1.15,2013-03-19 17:17:00,
2013-03-19 10:22:00,41.5,36.4,30.04,SE,144,1.0,5.0,82,0.00,,,0.01,Wunderground v.1.15,2013-03-19 17:22:00,
2013-03-19 10:28:00,42.0,36.0,30.04,SE,144,0.0,5.0,79,0.00,,,0.01,Wunderground v.1.15,2013-03-19 17:28:00,
2013-03-19 10:33:00,42.3,35.9,30.04,SE,144,0.0,5.0,78,0.00,,,0.01,Wunderground v.1.15,2013-03-19 17:33:00,
2013-03-19 10:39:00,42.7,37.3,30.04,SW,235,0.0,5.0,81,0.00,,,0.01,Wunderground v.1.15,2013-03-19 17:39:00,
2013-03-19 10:45:00,43.2,38.1,30.03,SW,235,0.0,0.0,82,0.00,,,0.01,Wunderground v.1.15,2013-03-19 17:45:00,
2013-03-19 10:51:00,43.3,37.2,30.03,SW,235,0.0,0.0,79,0.00,,,0.01,Wunderground v.1.15,2013-03-19 17:51:00,
2013-03-19 10:57:00,43.1,36.4,30.03,SW,235,0.0,1.0,77,0.00,,,0.01,Wunderground v.1.15,2013-03-19 17:57:00,
2013-03-19 11:02:00,42.8,36.1,30.03,SW,235,0.0,1.0,77,0.00,,,0.01,Wunderground v.1.15,2013-03-19 18:02:00,
2013-03-19 11:07:00,42.6,36.2,30.03,SSW,210,0.0,1.0,78,0.00,,,0.01,Wunderground v.1.15,2013-03-19 18:07:00,
2013-03-19 11:12:00,42.6,35.9,30.02,SSE,167,0.0,0.0,77,0.00,,,0.01,Wunderground v.1.15,2013-03-19 18:12:00,
2013-03-19 11:18:00,42.7,36.0,30.02,SSE,167,0.0,1.0,77,0.00,,,0.01,Wunderground v.1.15,2013-03-19 18:18:00,
2013-03-19 11:23:00,42.7,36.0,30.01,SSE,167,0.0,1.0,77,0.00,,,0.01,Wunderground v.1.15,2013-03-19 18:23:00,
2013-03-19 11:28:00,42.6,36.2,30.01,ESE,117,1.0,2.0,78,0.00,,,0.01,Wunderground v.1.15,2013-03-19 18:28:00,
2013-03-19 11:34:00,42.6,36.2,30.01,ESE,119,1.0,3.0,78,0.00,,,0.01,Wunderground v.1.15,2013-03-19 18:34:00,
2013-03-19 11:39:00,42.7,36.6,30.01,South,188,1.0,4.0,79,0.00,,,0.01,Wunderground v.1.15,2013-03-19 18:39:00,
2013-03-19 11:44:00,43.1,37.0,30.01,South,185,2.0,4.0,79,0.00,,,0.01,Wunderground v.1.15,2013-03-19 18:44:00,
2013-03-19 11:50:00,43.6,38.2,30.01,WSW,252,2.0,3.0,81,0.00,,,0.01,Wunderground v.1.15,2013-03-19 18:50:00,
2013-03-19 11:56:00,43.8,38.0,30.01,WSW,242,2.0,3.0,80,0.00,,,0.01,Wunderground v.1.15,2013-03-19 18:56:00,
2013-03-19 12:02:00,44.0,37.9,30.01,WSW,242,1.0,3.0,79,0.00,,,0.01,Wunderground v.1.15,2013-03-19 19:02:00,
2013-03-19 12:08:00,44.0,37.6,30.00,WSW,242,0.0,3.0,78,0.00,,,0.01,Wunderground v.1.15,2013-03-19 19:08:00,
2013-03-19 12:13:00,44.2,37.4,30.00,WSW,242,0.0,1.0,77,0.00,,,0.01,Wunderground v.1.15,2013-03-19 19:13:00,
2013-03-19 12:19:00,44.0,37.3,30.00,WSW,242,0.0,1.0,77,0.00,,,0.01,Wunderground v.1.15,2013-03-19 19:19:00,
2013-03-19 12:24:00,44.0,37.9,30.00,WSW,242,0.0,1.0,79,0.00,,,0.01,Wunderground v.1.15,2013-03-19 19:24:00,
2013-03-19 12:30:00,44.2,37.4,29.99,WSW,241,1.0,1.0,77,0.00,,,0.01,Wunderground v.1.15,2013-03-19 19:30:00,
2013-03-19 12:36:00,44.2,37.4,29.99,ESE,121,1.0,2.0,77,0.00,,,0.01,Wunderground v.1.15,2013-03-19 19:36:00,
2013-03-19 12:42:00,44.3,37.5,29.99,ESE,121,1.0,1.0,77,0.00,,,0.01,Wunderground v.1.15,2013-03-19 19:42:00,
2013-03-19 12:48:00,44.5,38.1,29.99,ESE,121,0.0,2.0,78,0.00,,,0.01,Wunderground v.1.15,2013-03-19 19:48:00,
2013-03-19 12:53:00,44.5,38.1,29.98,ESE,115,1.0,2.0,78,0.00,,,0.01,Wunderground v.1.15,2013-03-19 19:53:00,
2013-03-19 12:59:00,44.7,38.3,29.98,ESE,115,1.0,2.0,78,0.00,,,0.01,Wunderground v.1.15,2013-03-19 19:59:00,
2013-03-19 13:05:00,44.9,37.8,29.98,ESE,114,1.0,5.0,76,0.00,,,0.01,Wunderground v.1.15,2013-03-19 20:05:00,
2013-03-19 13:10:00,45.0,37.9,29.98,ESE,115,1.0,1.0,76,0.00,,,0.01,Wunderground v.1.15,2013-03-19 20:10:00,
2013-03-19 13:16:00,45.6,38.5,29.98,ESE,115,0.0,5.0,76,0.00,,,0.01,Wunderground v.1.15,2013-03-19 20:16:00,
2013-03-19 13:22:00,46.3,38.8,29.97,ESE,116,0.0,5.0,75,0.00,,,0.01,Wunderground v.1.15,2013-03-19 20:22:00,
2013-03-19 13:28:00,46.6,38.4,29.97,ESE,116,0.0,5.0,73,0.00,,,0.01,Wunderground v.1.15,2013-03-19 20:28:00,
2013-03-19 13:33:00,46.6,38.8,29.97,ESE,115,0.0,5.0,74,0.00,,,0.01,Wunderground v.1.15,2013-03-19 20:33:00,
2013-03-19 13:39:00,46.5,39.0,29.96,ESE,105,1.0,5.0,75,0.00,,,0.01,Wunderground v.1.15,2013-03-19 20:39:00,
2013-03-19 13:45:00,46.3,39.5,29.96,NE,49,2.0,5.0,77,0.00,,,0.01,Wunderground v.1.15,2013-03-19 20:45:00,
2013-03-19 13:50:00,46.4,39.6,29.95,NE,49,1.0,1.0,77,0.00,,,0.01,Wunderground v.1.15,2013-03-19 20:50:00,
2013-03-19 13:56:00,46.7,39.9,29.95,ENE,69,1.0,5.0,77,0.00,,,0.01,Wunderground v.1.15,2013-03-19 20:56:00,
2013-03-19 14:01:00,46.9,40.4,29.95,ENE,69,1.0,5.0,78,0.00,,,0.01,Wunderground v.1.15,2013-03-19 21:01:00,
2013-03-19 14:07:00,47.0,40.2,29.95,ENE,67,0.0,5.0,77,0.00,,,0.01,Wunderground v.1.15,2013-03-19 21:07:00,
2013-03-19 14:13:00,47.2,40.7,29.94,ENE,67,1.0,5.0,78,0.00,,,0.01,Wunderground v.1.15,2013-03-19 21:13:00,
2013-03-19 14:18:00,47.2,40.7,29.94,ENE,67,0.0,5.0,78,0.00,,,0.01,Wunderground v.1.15,2013-03-19 21:18:00,
2013-03-19 14:24:00,47.3,40.8,29.93,ENE,67,0.0,5.0,78,0.00,,,0.01,Wunderground v.1.15,2013-03-19 21:24:00,
2013-03-19 14:30:00,47.5,41.3,29.93,ENE,67,1.0,1.0,79,0.00,,,0.01,Wunderground v.1.15,2013-03-19 21:30:00,
2013-03-19 14:36:00,47.6,41.4,29.93,ENE,67,1.0,5.0,79,0.00,,,0.01,Wunderground v.1.15,2013-03-19 21:36:00,
2013-03-19 14:42:00,47.8,41.9,29.92,ENE,66,1.0,5.0,80,0.00,,,0.01,Wunderground v.1.15,2013-03-19 21:42:00,
2013-03-19 14:47:00,47.9,42.0,29.92,ENE,66,1.0,5.0,80,0.00,,,0.01,Wunderground v.1.15,2013-03-19 21:47:00,
2013-03-19 14:52:00,48.0,42.1,29.92,ENE,66,0.0,5.0,80,0.00,,,0.01,Wunderground v.1.15,2013-03-19 21:52:00,
2013-03-19 14:57:00,48.1,42.9,29.92,ENE,66,0.0,5.0,82,0.00,,,0.01,Wunderground v.1.15,2013-03-19 21:57:00,
2013-03-19 15:03:00,48.2,42.3,29.91,ENE,65,0.0,5.0,80,0.00,,,0.01,Wunderground v.1.15,2013-03-19 22:03:00,
2013-03-19 15:09:00,48.2,43.0,29.91,NE,47,1.0,5.0,82,0.00,,,0.01,Wunderground v.1.15,2013-03-19 22:09:00,
2013-03-19 15:15:00,48.3,43.7,29.91,NE,46,1.0,5.0,84,0.00,,,0.02,Wunderground v.1.15,2013-03-19 22:15:00,
2013-03-19 15:20:00,48.5,44.2,29.92,WNW,286,1.0,1.0,85,0.00,,,0.02,Wunderground v.1.15,2013-03-19 22:20:00,
2013-03-19 15:26:00,48.4,44.1,29.91,WNW,286,1.0,5.0,85,0.00,,,0.02,Wunderground v.1.15,2013-03-19 22:26:00,
2013-03-19 15:32:00,48.4,44.1,29.90,WNW,286,0.0,5.0,85,0.00,,,0.02,Wunderground v.1.15,2013-03-19 22:32:00,
2013-03-19 15:37:00,48.4,44.1,29.90,WNW,286,0.0,5.0,85,0.00,,,0.02,Wunderground v.1.15,2013-03-19 22:37:00,
2013-03-19 15:42:00,48.3,44.0,29.90,WNW,286,0.0,5.0,85,0.00,,,0.02,Wunderground v.1.15,2013-03-19 22:42:00,
2013-03-19 15:48:00,48.2,43.9,29.90,WNW,286,0.0,5.0,85,0.00,,,0.02,Wunderground v.1.15,2013-03-19 22:48:00,
2013-03-19 15:53:00,48.1,44.1,29.90,WNW,286,0.0,5.0,86,0.00,,,0.02,Wunderground v.1.15,2013-03-19 22:53:00,
2013-03-19 15:59:00,47.9,43.9,29.89,WNW,286,1.0,5.0,86,0.00,,,0.02,Wunderground v.1.15,2013-03-19 22:59:00,
2013-03-19 16:04:00,47.7,44.0,29.89,WNW,286,0.0,5.0,87,0.00,,,0.02,Wunderground v.1.15,2013-03-19 23:04:00,
2013-03-19 16:10:00,47.6,44.2,29.89,WNW,286,0.0,5.0,88,0.00,,,0.02,Wunderground v.1.15,2013-03-19 23:10:00,
2013-03-19 16:16:00,47.5,45.3,29.89,WNW,286,0.0,5.0,92,0.00,,,0.02,Wunderground v.1.15,2013-03-19 23:16:00,
2013-03-19 16:22:00,47.4,44.3,29.89,WNW,284,0.0,5.0,89,0.00,,,0.03,Wunderground v.1.15,2013-03-19 23:22:00,
2013-03-19 16:28:00,47.4,44.3,29.89,WNW,284,0.0,5.0,89,0.00,,,0.03,Wunderground v.1.15,2013-03-19 23:28:00,
2013-03-19 16:33:00,47.4,44.3,29.88,WNW,284,0.0,5.0,89,0.00,,,0.03,Wunderground v.1.15,2013-03-19 23:33:00,
2013-03-19 16:39:00,47.4,44.3,29.88,WNW,284,0.0,5.0,89,0.00,,,0.03,Wunderground v.1.15,2013-03-19 23:39:00,
2013-03-19 16:44:00,47.3,43.3,29.88,West,281,0.0,5.0,86,0.00,,,0.03,Wunderground v.1.15,2013-03-19 23:44:00,
2013-03-19 16:50:00,47.3,43.0,29.87,West,281,0.0,5.0,85,0.00,,,0.03,Wunderground v.1.15,2013-03-19 23:50:00,
2013-03-19 16:55:00,47.4,43.1,29.87,SSE,163,1.0,5.0,85,0.00,,,0.03,Wunderground v.1.15,2013-03-19 23:55:00,
2013-03-19 17:00:00,47.6,42.7,29.86,East,98,1.0,5.0,83,0.00,,,0.03,Wunderground v.1.15,2013-03-20 00:00:00,
2013-03-19 17:06:00,47.8,42.9,29.86,East,98,2.0,5.0,83,0.00,,,0.03,Wunderground v.1.15,2013-03-20 00:06:00,
2013-03-19 17:12:00,48.0,43.4,29.85,SSE,161,2.0,5.0,84,0.00,,,0.03,Wunderground v.1.15,2013-03-20 00:12:00,
2013-03-19 17:17:00,47.9,43.3,29.85,SSE,157,2.0,5.0,84,0.00,,,0.03,Wunderground v.1.15,2013-03-20 00:17:00,
2013-03-19 17:23:00,47.8,43.2,29.85,ESE,106,2.0,5.0,84,0.00,,,0.03,Wunderground v.1.15,2013-03-20 00:23:00,
2013-03-19 17:28:00,47.7,43.4,29.85,SSE,157,1.0,5.0,85,0.00,,,0.03,Wunderground v.1.15,2013-03-20 00:28:00,
2013-03-19 17:34:00,47.4,43.1,29.84,East,92,1.0,5.0,85,0.00,,,0.04,Wunderground v.1.15,2013-03-20 00:34:00,
2013-03-19 17:39:00,47.1,43.1,29.84,East,98,2.0,5.0,86,0.09,,,0.05,Wunderground v.1.15,2013-03-20 00:39:00,
2013-03-19 17:44:00,46.7,42.7,29.84,ESE,115,3.0,6.0,86,0.08,,,0.05,Wunderground v.1.15,2013-03-20 00:44:00,
2013-03-19 17:50:00,46.5,43.1,29.83,ESE,109,3.0,3.0,88,0.07,,,0.06,Wunderground v.1.15,2013-03-20 00:50:00,
2013-03-19 17:55:00,46.3,42.9,29.83,SE,146,3.0,5.0,88,0.10,,,0.07,Wunderground v.1.15,2013-03-20 00:55:00,
2013-03-19 18:01:00,46.2,43.1,29.83,ESE,120,2.0,5.0,89,0.06,,,0.07,Wunderground v.1.15,2013-03-20 01:01:00,
2013-03-19 18:07:00,46.1,43.0,29.82,ESE,106,0.0,5.0,89,0.06,,,0.08,Wunderground v.1.15,2013-03-20 01:07:00,
2013-03-19 18:13:00,45.9,42.8,29.82,SSE,166,1.0,4.0,89,0.05,,,0.08,Wunderground v.1.15,2013-03-20 01:13:00,
2013-03-19 18:19:00,45.8,42.7,29.81,ESE,114,2.0,4.0,89,0.00,,,0.08,Wunderground v.1.15,2013-03-20 01:19:00,
2013-03-19 18:24:00,45.7,42.9,29.80,ESE,105,2.0,2.0,90,0.00,,,0.08,Wunderground v.1.15,2013-03-20 01:24:00,
2013-03-19 18:30:00,45.7,42.9,29.79,SE,130,2.0,2.0,90,0.00,,,0.08,Wunderground v.1.15,2013-03-20 01:30:00,
2013-03-19 18:35:00,45.6,42.8,29.79,SE,145,2.0,3.0,90,0.00,,,0.08,Wunderground v.1.15,2013-03-20 01:35:00,
2013-03-19 18:41:00,45.6,42.8,29.79,SSW,193,1.0,2.0,90,0.00,,,0.08,Wunderground v.1.15,2013-03-20 01:41:00,
2013-03-19 18:47:00,45.6,43.1,29.79,SSE,165,2.0,3.0,91,0.00,,,0.09,Wunderground v.1.15,2013-03-20 01:47:00,
2013-03-19 18:52:00,45.5,43.0,29.78,South,190,2.0,5.0,91,0.00,,,0.09,Wunderground v.1.15,2013-03-20 01:52:00,
2013-03-19 18:58:00,45.4,42.9,29.78,South,169,2.0,5.0,91,0.00,,,0.09,Wunderground v.1.15,2013-03-20 01:58:00,
2013-03-19 19:03:00,45.2,42.7,29.78,SSE,158,2.0,10.0,91,0.00,,,0.09,Wunderground v.1.15,2013-03-20 02:03:00,
2013-03-19 19:09:00,45.1,42.3,29.78,SSE,167,1.0,10.0,90,0.00,,,0.09,Wunderground v.1.15,2013-03-20 02:09:00,
2013-03-19 19:14:00,45.1,42.3,29.78,SSE,166,1.0,10.0,90,0.00,,,0.09,Wunderground v.1.15,2013-03-20 02:14:00,
2013-03-19 19:20:00,45.1,42.6,29.77,SSE,166,0.0,10.0,91,0.00,,,0.09,Wunderground v.1.15,2013-03-20 02:20:00,
2013-03-19 19:25:00,45.2,42.7,29.77,SSE,166,0.0,10.0,91,0.00,,,0.09,Wunderground v.1.15,2013-03-20 02:25:00,
2013-03-19 19:31:00,45.2,42.7,29.76,SSE,166,0.0,10.0,91,0.00,,,0.09,Wunderground v.1.15,2013-03-20 02:31:00,
2013-03-19 19:37:00,45.2,42.7,29.75,SSE,166,0.0,10.0,91,0.00,,,0.10,Wunderground v.1.15,2013-03-20 02:37:00,
2013-03-19 19:42:00,45.1,42.6,29.75,SSE,166,0.0,10.0,91,0.00,,,0.10,Wunderground v.1.15,2013-03-20 02:42:00,
2013-03-19 19:48:00,45.1,42.6,29.75,SE,137,0.0,10.0,91,0.00,,,0.10,Wunderground v.1.15,2013-03-20 02:48:00,
2013-03-19 19:54:00,45.0,42.5,29.75,ENE,57,1.0,10.0,91,0.00,,,0.10,Wunderground v.1.15,2013-03-20 02:54:00,
2013-03-19 19:59:00,45.0,42.8,29.74,ENE,57,1.0,10.0,92,0.00,,,0.10,Wunderground v.1.15,2013-03-20 02:59:00,
2013-03-19 20:05:00,45.0,42.8,29.74,ENE,65,0.0,10.0,92,0.00,,,0.10,Wunderground v.1.15,2013-03-20 03:05:00,
2013-03-19 20:10:00,45.0,42.8,29.73,ENE,76,1.0,10.0,92,0.00,,,0.10,Wunderground v.1.15,2013-03-20 03:10:00,
2013-03-19 20:16:00,45.0,42.8,29.72,ESE,111,1.0,10.0,92,0.00,,,0.10,Wunderground v.1.15,2013-03-20 03:16:00,
2013-03-19 20:22:00,45.0,42.8,29.72,SE,128,1.0,10.0,92,0.00,,,0.10,Wunderground v.1.15,2013-03-20 03:22:00,
2013-03-19 20:27:00,45.0,42.8,29.72,ESE,121,1.0,10.0,92,0.00,,,0.10,Wunderground v.1.15,2013-03-20 03:27:00,
2013-03-19 20:33:00,45.0,42.8,29.72,SE,140,1.0,10.0,92,0.00,,,0.10,Wunderground v.1.15,2013-03-20 03:33:00,
2013-03-19 20:39:00,45.0,42.8,29.72,South,182,0.0,10.0,92,0.00,,,0.10,Wunderground v.1.15,2013-03-20 03:39:00,
2013-03-19 20:44:00,45.0,42.8,29.71,South,181,1.0,10.0,92,0.00,,,0.10,Wunderground v.1.15,2013-03-20 03:44:00,
2013-03-19 20:50:00,45.1,42.9,29.71,South,180,2.0,10.0,92,0.00,,,0.10,Wunderground v.1.15,2013-03-20 03:50:00,
2013-03-19 20:56:00,45.2,43.0,29.72,SSE,157,3.0,10.0,92,0.00,,,0.10,Wunderground v.1.15,2013-03-20 03:56:00,
2013-03-19 21:00:00,45.2,43.0,29.71,South,181,3.0,10.0,92,0.00,,,0.10,Wunderground v.1.15,2013-03-20 04:00:00,
2013-03-19 21:01:00,45.2,43.0,29.71,South,181,3.0,10.0,92,0.00,,,0.10,Wunderground v.1.15,2013-03-20 04:01:00,
2013-03-19 21:03:00,45.2,42.7,29.70,SSE,154,3.0,10.0,91,0.00,,,0.10,Wunderground v.1.15,2013-03-20 04:03:00,
2013-03-19 21:07:00,45.2,42.7,29.70,SSE,160,2.0,10.0,91,0.00,,,0.10,Wunderground v.1.15,2013-03-20 04:07:00,
2013-03-19 21:12:00,45.4,43.2,29.70,East,94,2.0,10.0,92,0.00,,,0.10,Wunderground v.1.15,2013-03-20 04:12:00,
2013-03-19 21:18:00,45.4,43.2,29.70,East,92,1.0,10.0,92,0.00,,,0.11,Wunderground v.1.15,2013-03-20 04:18:00,
2013-03-19 21:23:00,45.3,43.1,29.69,East,92,1.0,10.0,92,0.00,,,0.11,Wunderground v.1.15,2013-03-20 04:23:00,
2013-03-19 21:29:00,45.2,43.0,29.70,ESE,111,1.0,10.0,92,0.00,,,0.11,Wunderground v.1.15,2013-03-20 04:29:00,
2013-03-19 21:34:00,45.1,42.9,29.69,ESE,111,1.0,10.0,92,0.00,,,0.11,Wunderground v.1.15,2013-03-20 04:34:00,
2013-03-19 21:39:00,45.0,43.1,29.69,ESE,111,0.0,10.0,93,0.00,,,0.11,Wunderground v.1.15,2013-03-20 04:39:00,
2013-03-19 21:45:00,45.0,43.1,29.69,ESE,107,0.0,10.0,93,0.00,,,0.11,Wunderground v.1.15,2013-03-20 04:45:00,
2013-03-19 21:51:00,45.1,43.2,29.69,ESE,108,1.0,10.0,93,0.00,,,0.11,Wunderground v.1.15,2013-03-20 04:51:00,
2013-03-19 21:57:00,45.0,43.1,29.69,SSW,196,1.0,10.0,93,0.00,,,0.12,Wunderground v.1.15,2013-03-20 04:57:00,
2013-03-19 22:02:00,45.0,43.1,29.69,WSW,244,1.0,10.0,93,0.12,,,0.13,Wunderground v.1.15,2013-03-20 05:02:00,
2013-03-19 22:08:00,45.0,43.1,29.68,SW,219,1.0,10.0,93,0.08,,,0.14,Wunderground v.1.15,2013-03-20 05:08:00,
2013-03-19 22:13:00,45.0,43.1,29.68,SSW,196,2.0,10.0,93,0.12,,,0.15,Wunderground v.1.15,2013-03-20 05:13:00,
2013-03-19 22:19:00,45.0,43.1,29.67,SSW,198,2.0,10.0,93,0.17,,,0.17,Wunderground v.1.15,2013-03-20 05:19:00,
2013-03-19 22:24:00,45.0,43.1,29.67,SSW,198,1.0,10.0,93,0.11,,,0.17,Wunderground v.1.15,2013-03-20 05:24:00,
2013-03-19 22:30:00,45.0,43.1,29.67,SSW,198,0.0,10.0,93,0.06,,,0.18,Wunderground v.1.15,2013-03-20 05:30:00,
2013-03-19 22:36:00,45.0,43.1,29.67,SSW,198,0.0,10.0,93,0.13,,,0.19,Wunderground v.1.15,2013-03-20 05:36:00,
2013-03-19 22:41:00,45.0,43.1,29.67,SSW,198,0.0,10.0,93,0.08,,,0.19,Wunderground v.1.15,2013-03-20 05:41:00,
2013-03-19 22:46:00,44.9,43.0,29.67,SSE,166,0.0,10.0,93,0.07,,,0.20,Wunderground v.1.15,2013-03-20 05:46:00,
2013-03-19 22:52:00,44.8,42.9,29.66,SSE,167,0.0,10.0,93,0.08,,,0.21,Wunderground v.1.15,2013-03-20 05:52:00,
2013-03-19 22:58:00,44.8,42.9,29.66,SSE,167,0.0,10.0,93,0.08,,,0.22,Wunderground v.1.15,2013-03-20 05:58:00,
2013-03-19 23:03:00,44.8,42.9,29.66,SSE,167,0.0,10.0,93,0.17,,,0.23,Wunderground v.1.15,2013-03-20 06:03:00,
2013-03-19 23:08:00,44.8,42.9,29.66,SSE,167,0.0,10.0,93,0.18,,,0.25,Wunderground v.1.15,2013-03-20 06:08:00,